AirNav   ProFlight Series 2 Aviation Headset
 
 954 users online  

M45 Alpine County Airport
Markleeville, California, USA

GOING TO MARKLEEVILLE?


FAA INFORMATION EFFECTIVE 18 JUNE 2020

Location

FAA Identifier: M45
Lat/Long: 38-44-05.1000N 119-46-01.4000W
38-44.085000N 119-46.023333W
38.7347500,-119.7670556
(estimated)
Elevation: 5871.7 ft. / 1789.7 m (surveyed)
Variation: 16E (1985)
From city: 3 miles N of MARKLEEVILLE, CA
Time zone: UTC -7 (UTC -8 during Standard Time)
Zip code: 96120

Airport Operations

Airport use: Open to the public
Activation date: 01/1968
Control tower: no
ARTCC: OAKLAND CENTER
FSS: RENO FLIGHT SERVICE STATION
NOTAMs facility: RNO (NOTAM-D service available)
Attendance: UNATNDD
Pattern altitude: 6671.7 ft. MSL
Wind indicator: yes
Segmented circle: yes

Airport Communications

CTAF: 122.9
WX ASOS at TVL (14 nm NW): 124.725 (530-541-5739)
WX AWOS-3PT at MEV (16 nm N): 119.325 (775-782-6264)

Nearby radio navigation aids

VOR radial/distance  VOR name  Freq  Var
SWRr123/35.6SQUAW VALLEY VOR/DME113.2016E

Airport Services

Parking: tiedowns
Airframe service: NONE
Powerplant service: NONE
Bottled oxygen: NONE
Bulk oxygen: NONE

Runway Information

Runway 17/35

Dimensions: 4443 x 50 ft. / 1354 x 15 m
Surface: asphalt, in fair condition
RUNWAY 17  RUNWAY 35
Latitude: 38-44.450493N38-43.720373N
Longitude: 119-45.992190W119-46.053137W
Elevation: 5827.3 ft.5871.7 ft.
Traffic pattern: leftright
Runway heading: 168 magnetic, 184 true348 magnetic, 004 true
Markings: basic, in fair conditionbasic, in fair condition
Runway end identifier lights: nono
Touchdown point: yes, no lightsyes, no lights
Obstructions: 150 ft. hill, 3200 ft. from runway, 425 ft. left of centerline, 20:1 slope to clearnone

Airport Ownership and Management from official FAA records

Ownership: Publicly-owned
Owner: ALPINE COUNTY
50 DIAMOND VALLEY RD
MARKLEEVILLE, CA 96120
Phone 530-694-2140
Manager: BRIAN PETERS
50 DIAMOND VALLEY RD
MARKLEEVILLE, CA 96120
Phone 530-694-2140
X 425

Airport Operational Statistics

Aircraft operations: avg 21/month *
100% transient general aviation
* for 12-month period ending 24 October 2019

Additional Remarks

LARGE STONES ALONG EDGE OF RWY OFF GRADED SFC.
NO SNOW REMOVAL, ARPT CLOSED WHEN SNOW ON RUNWAY.
TREES PENETRATING TRANSITIONAL SFCS E & W OF RY.
SOIL CONDITIONS OFF RY IS POOR IN WET CONDITIONS. CALL PUBLIC WORKS FOR ADDITIONAL INFORMATION 530-694-2140 EXT."0".
RY 17/35 LIMITED BY AIRPORT OPERATOR TO 4,800 LBS SINGLE WHEEL, 9,600 LBS DUAL WHEEL.
FOR CD CTC OAKLAND ARTCC AT 510-745-3380.

Instrument Procedures

There are no published instrument procedures at M45.

Some nearby airports with instrument procedures:

KTVL - Lake Tahoe Airport (14 nm NW)
KMEV - Minden-Tahoe Airport (16 nm N)
KCXP - Carson Airport (28 nm N)
KTRK - Truckee-Tahoe Airport (39 nm NW)
KRNO - Reno/Tahoe International Airport (46 nm N)
 
Loc | Ops | Rwys | IFR | FBO | Links
Com | Nav | Svcs | Stats | Notes
Area around M45 (Alpine County Airport)
 
Road maps at: MapQuest Bing Google
 
Aerial photo
WARNING: Photo may not be current or correct
Aerial photo of M45 (Alpine County Airport)
Photo taken 10-Aug-2013
looking south.

Do you have a better or more recent aerial photo of Alpine County Airport that you would like to share? If so, please send us your photo.

 
Sectional chart

 
Airport distance calculator
Flying to Alpine County Airport? Find the distance to fly.

From to M45

Sunrise and sunset
Times for 09-Jul-2020
 Local
(UTC-7)
 Zulu
(UTC)
Morning civil twilight05:1312:13
Sunrise05:4412:44
Sunset20:2503:25
Evening civil twilight20:5603:56

Current date and time
Zulu (UTC)  10-Jul-2020 00:35:24
Local (UTC-7)  09-Jul-2020 17:35:24
 
METAR
KTVL 
15nm NW 
092353Z AUTO 20012G28KT 10SM CLR 25/03 A3016 RMK AO2 PK WND 20028/2349 SLP163 T02500028 10261 20217 53002
KMEV 
16nm N 
100015Z AUTO 29015G22KT 10SM CLR 31/00 A3003 RMK AO2
KBAN 
26nm SE 
092352Z AUTO 20008G18KT 10SM CLR 28/M09 A3016 RMK AO2 SLP121 T02781089 10294 20256 53006 $
KCXP 
28nm N 
100015Z AUTO 29016G24KT 10SM CLR 30/M00 A3004 RMK AO2
TAF
KTVL 
15nm NW 
091720Z 0918/1018 03008KT P6SM SKC FM092000 19011G20KT P6SM SKC FM100200 VRB03KT P6SM SKC
KMEV 
16nm N 
091720Z 0918/1018 VRB04KT P6SM SKC FM092000 27015G25KT P6SM SKC FM100300 29008KT P6SM SKC FM100700 12006KT P6SM SKC
NOTAMs
Click for the latest NOTAMs
NOTAMs are issued by the DoD/FAA and will open in a separate window not controlled by AirNav.

 

 
 

Aviation Businesses, Services, and Facilities

  
 Business Name 
 
 Contact 
 
 Services / Description 
 
Distance
 
Comments
  
Alpine County Airport 530-694-2140
no information available

If you are affiliated with Alpine County Airport and would like to show here your services, contact info, web link, logo, and more, click here
on airport  
   write
 

Would you like to see your business listed on this page?

 If your business provides an interesting product or service to pilots, flight crews, aircraft, or users of the Alpine County Airport, you should consider listing it here.  To start the listing process, click on the button below
 
Add a business
 

Other Pages about Alpine County Airport

Update a link
 
Copyright © AirNav, LLC. All rights reserved. Privacy Policy  Contact